Aviation Digital Data Service (ADDS)

Output produced by METARs form (1302 UTC 17 January 2017)
found at http://aviationweather.gov/adds/metars/
 
KLAS 171120Z 1712/1812 VRB05KT P6SM SKC 
     FM180200 21007KT P6SM SKC